Neenah, Wisconsin
Current Conditions -  °F | °C
As of 5:45 AM on Saturday 25 Oct 2014 (Local Time) from KATW Reporting Station
Haze Haze  
Wind Chill: 52°   Ceiling: Unl
Heat Index: 52°   Visibility: 5mi
Dew Point: 52°   Wind: 9mph
Humidity: 100%   Direction: 260°W
Pressure: 29.84"   Gusts: NA
Location:  44.19°N, 88.46°W
Report Text: KATW 251045Z 26008KT 5SM BR SCT007 SCT070 11/11 A2984
Loading
Personal Weather Stations






























Interactive Weather Map New forecast layout! Learn more

10-Day Weather Forecast

Advertisements
Track Severe Weather on mobile